sensor_id;sensor_type;location;lat;lon;timestamp;temperature;humidity
21752;DHT22;11038;50.940;20.564;2022-09-02T00:01:29;11.30;99.90
21752;DHT22;11038;50.940;20.564;2022-09-02T00:03:04;11.30;99.90
21752;DHT22;11038;50.940;20.564;2022-09-02T00:04:37;11.30;99.90
21752;DHT22;11038;50.940;20.564;2022-09-02T00:06:10;11.30;99.90
21752;DHT22;11038;50.940;20.564;2022-09-02T00:07:43;11.20;99.90
21752;DHT22;11038;50.940;20.564;2022-09-02T00:09:18;11.20;99.90
21752;DHT22;11038;50.940;20.564;2022-09-02T00:10:52;11.20;99.90
21752;DHT22;11038;50.940;20.564;2022-09-02T00:12:25;11.30;99.90
21752;DHT22;11038;50.940;20.564;2022-09-02T00:13:59;11.30;99.90
21752;DHT22;11038;50.940;20.564;2022-09-02T00:15:34;11.30;99.90
21752;DHT22;11038;50.940;20.564;2022-09-02T00:17:07;11.30;99.90
21752;DHT22;11038;50.940;20.564;2022-09-02T00:18:40;11.30;99.90
21752;DHT22;11038;50.940;20.564;2022-09-02T00:20:17;11.30;99.90
21752;DHT22;11038;50.940;20.564;2022-09-02T00:21:50;11.30;99.90
21752;DHT22;11038;50.940;20.564;2022-09-02T00:23:25;11.30;99.90
21752;DHT22;11038;50.940;20.564;2022-09-02T00:24:58;11.30;99.90
21752;DHT22;11038;50.940;20.564;2022-09-02T00:26:30;11.30;99.90
21752;DHT22;11038;50.940;20.564;2022-09-02T00:28:04;11.30;99.90
21752;DHT22;11038;50.940;20.564;2022-09-02T00:29:37;11.20;99.90
21752;DHT22;11038;50.940;20.564;2022-09-02T00:31:11;11.20;99.90
21752;DHT22;11038;50.940;20.564;2022-09-02T00:32:45;11.20;99.90
21752;DHT22;11038;50.940;20.564;2022-09-02T00:34:17;11.20;99.90
21752;DHT22;11038;50.940;20.564;2022-09-02T00:35:49;11.20;99.90
21752;DHT22;11038;50.940;20.564;2022-09-02T00:37:22;11.20;99.90
21752;DHT22;11038;50.940;20.564;2022-09-02T00:38:55;11.20;99.90
21752;DHT22;11038;50.940;20.564;2022-09-02T00:40:28;11.20;99.90
21752;DHT22;11038;50.940;20.564;2022-09-02T00:42:02;11.20;99.90
21752;DHT22;11038;50.940;20.564;2022-09-02T00:43:54;11.20;99.90
21752;DHT22;11038;50.940;20.564;2022-09-02T00:45:26;11.20;99.90
21752;DHT22;11038;50.940;20.564;2022-09-02T00:46:59;11.20;99.90
21752;DHT22;11038;50.940;20.564;2022-09-02T00:48:34;11.20;99.90
21752;DHT22;11038;50.940;20.564;2022-09-02T00:50:15;11.20;99.90
21752;DHT22;11038;50.940;20.564;2022-09-02T00:52:08;11.20;99.90
21752;DHT22;11038;50.940;20.564;2022-09-02T00:53:46;11.20;99.90
21752;DHT22;11038;50.940;20.564;2022-09-02T00:55:26;11.10;99.90
21752;DHT22;11038;50.940;20.564;2022-09-02T00:57:05;11.10;99.90
21752;DHT22;11038;50.940;20.564;2022-09-02T00:58:42;11.10;99.90
21752;DHT22;11038;50.940;20.564;2022-09-02T01:00:21;11.10;99.90
21752;DHT22;11038;50.940;20.564;2022-09-02T01:02:02;11.10;99.90
21752;DHT22;11038;50.940;20.564;2022-09-02T01:03:37;11.10;99.90
21752;DHT22;11038;50.940;20.564;2022-09-02T01:05:13;11.10;99.90
21752;DHT22;11038;50.940;20.564;2022-09-02T01:06:48;11.10;99.90
21752;DHT22;11038;50.940;20.564;2022-09-02T01:08:26;11.10;99.90
21752;DHT22;11038;50.940;20.564;2022-09-02T01:10:02;11.20;99.90
21752;DHT22;11038;50.940;20.564;2022-09-02T01:11:48;11.30;99.90
21752;DHT22;11038;50.940;20.564;2022-09-02T01:13:27;11.30;99.90
21752;DHT22;11038;50.940;20.564;2022-09-02T01:15:02;11.30;99.90
21752;DHT22;11038;50.940;20.564;2022-09-02T01:16:41;11.40;99.90
21752;DHT22;11038;50.940;20.564;2022-09-02T01:18:24;11.40;99.90
21752;DHT22;11038;50.940;20.564;2022-09-02T01:20:23;11.40;99.90
21752;DHT22;11038;50.940;20.564;2022-09-02T01:21:57;11.40;99.90
21752;DHT22;11038;50.940;20.564;2022-09-02T01:23:30;11.30;99.90
21752;DHT22;11038;50.940;20.564;2022-09-02T01:25:10;11.30;99.90
21752;DHT22;11038;50.940;20.564;2022-09-02T01:26:51;11.30;99.90
21752;DHT22;11038;50.940;20.564;2022-09-02T01:28:25;11.30;99.90
21752;DHT22;11038;50.940;20.564;2022-09-02T01:29:59;11.30;99.90
21752;DHT22;11038;50.940;20.564;2022-09-02T01:31:32;11.30;99.90
21752;DHT22;11038;50.940;20.564;2022-09-02T01:33:05;11.30;99.90
21752;DHT22;11038;50.940;20.564;2022-09-02T01:34:37;11.30;99.90
21752;DHT22;11038;50.940;20.564;2022-09-02T01:36:09;11.30;99.90
21752;DHT22;11038;50.940;20.564;2022-09-02T01:37:43;11.30;99.90
21752;DHT22;11038;50.940;20.564;2022-09-02T01:39:26;11.30;99.90
21752;DHT22;11038;50.940;20.564;2022-09-02T01:40:58;11.20;99.90
21752;DHT22;11038;50.940;20.564;2022-09-02T01:42:32;11.20;99.90
21752;DHT22;11038;50.940;20.564;2022-09-02T01:44:05;11.20;99.90
21752;DHT22;11038;50.940;20.564;2022-09-02T01:45:39;11.20;99.90
21752;DHT22;11038;50.940;20.564;2022-09-02T01:47:17;11.20;99.90
21752;DHT22;11038;50.940;20.564;2022-09-02T01:48:53;11.20;99.90
21752;DHT22;11038;50.940;20.564;2022-09-02T01:50:25;11.20;99.90
21752;DHT22;11038;50.940;20.564;2022-09-02T01:51:58;11.20;99.90
21752;DHT22;11038;50.940;20.564;2022-09-02T01:53:31;11.20;99.90
21752;DHT22;11038;50.940;20.564;2022-09-02T01:55:04;11.20;99.90
21752;DHT22;11038;50.940;20.564;2022-09-02T01:56:37;11.20;99.90
21752;DHT22;11038;50.940;20.564;2022-09-02T01:58:10;11.20;99.90
21752;DHT22;11038;50.940;20.564;2022-09-02T01:59:42;11.20;99.90
21752;DHT22;11038;50.940;20.564;2022-09-02T02:01:16;11.20;99.90
21752;DHT22;11038;50.940;20.564;2022-09-02T02:02:49;11.20;99.90
21752;DHT22;11038;50.940;20.564;2022-09-02T02:04:22;11.20;99.90
21752;DHT22;11038;50.940;20.564;2022-09-02T02:05:56;11.20;99.90
21752;DHT22;11038;50.940;20.564;2022-09-02T02:07:28;11.20;99.90
21752;DHT22;11038;50.940;20.564;2022-09-02T02:09:01;11.20;99.90
21752;DHT22;11038;50.940;20.564;2022-09-02T02:10:33;11.10;99.90
21752;DHT22;11038;50.940;20.564;2022-09-02T02:12:06;11.00;99.90
21752;DHT22;11038;50.940;20.564;2022-09-02T02:13:39;10.90;99.90
21752;DHT22;11038;50.940;20.564;2022-09-02T02:15:15;10.80;99.90
21752;DHT22;11038;50.940;20.564;2022-09-02T02:16:49;10.80;99.90
21752;DHT22;11038;50.940;20.564;2022-09-02T02:18:22;10.80;99.90
21752;DHT22;11038;50.940;20.564;2022-09-02T02:19:54;10.80;99.90
21752;DHT22;11038;50.940;20.564;2022-09-02T02:21:27;10.80;99.90
21752;DHT22;11038;50.940;20.564;2022-09-02T02:22:59;10.80;99.90
21752;DHT22;11038;50.940;20.564;2022-09-02T02:24:32;10.70;99.90
21752;DHT22;11038;50.940;20.564;2022-09-02T02:26:04;10.70;99.90
21752;DHT22;11038;50.940;20.564;2022-09-02T02:27:37;10.70;99.90
21752;DHT22;11038;50.940;20.564;2022-09-02T02:29:14;10.70;99.90
21752;DHT22;11038;50.940;20.564;2022-09-02T02:30:47;10.70;99.90
21752;DHT22;11038;50.940;20.564;2022-09-02T02:32:19;10.60;99.90
21752;DHT22;11038;50.940;20.564;2022-09-02T02:33:52;10.60;99.90
21752;DHT22;11038;50.940;20.564;2022-09-02T02:35:24;10.70;99.90
21752;DHT22;11038;50.940;20.564;2022-09-02T02:36:57;10.70;99.90
21752;DHT22;11038;50.940;20.564;2022-09-02T02:38:30;10.60;99.90
21752;DHT22;11038;50.940;20.564;2022-09-02T02:40:06;10.60;99.90
21752;DHT22;11038;50.940;20.564;2022-09-02T02:41:40;10.70;99.90
21752;DHT22;11038;50.940;20.564;2022-09-02T02:43:15;10.60;99.90
21752;DHT22;11038;50.940;20.564;2022-09-02T02:44:48;10.60;99.90
21752;DHT22;11038;50.940;20.564;2022-09-02T02:46:21;10.60;99.90
21752;DHT22;11038;50.940;20.564;2022-09-02T02:47:53;10.60;99.90
21752;DHT22;11038;50.940;20.564;2022-09-02T02:49:26;10.60;99.90
21752;DHT22;11038;50.940;20.564;2022-09-02T02:50:59;10.60;99.90
21752;DHT22;11038;50.940;20.564;2022-09-02T02:52:31;10.60;99.90
21752;DHT22;11038;50.940;20.564;2022-09-02T02:54:04;10.60;99.90
21752;DHT22;11038;50.940;20.564;2022-09-02T02:55:37;10.70;99.90
21752;DHT22;11038;50.940;20.564;2022-09-02T02:57:11;10.80;99.90
21752;DHT22;11038;50.940;20.564;2022-09-02T02:58:44;10.80;99.90
21752;DHT22;11038;50.940;20.564;2022-09-02T03:00:19;10.80;99.90
21752;DHT22;11038;50.940;20.564;2022-09-02T03:01:55;10.90;99.90
21752;DHT22;11038;50.940;20.564;2022-09-02T03:03:27;10.90;99.90
21752;DHT22;11038;50.940;20.564;2022-09-02T03:05:00;10.90;99.90
21752;DHT22;11038;50.940;20.564;2022-09-02T03:06:34;10.90;99.90
21752;DHT22;11038;50.940;20.564;2022-09-02T03:08:08;10.90;99.90
21752;DHT22;11038;50.940;20.564;2022-09-02T03:09:41;10.90;99.90
21752;DHT22;11038;50.940;20.564;2022-09-02T03:11:15;10.90;99.90
21752;DHT22;11038;50.940;20.564;2022-09-02T03:12:49;10.90;99.90
21752;DHT22;11038;50.940;20.564;2022-09-02T03:14:21;10.90;99.90
21752;DHT22;11038;50.940;20.564;2022-09-02T03:15:54;10.90;99.90
21752;DHT22;11038;50.940;20.564;2022-09-02T03:17:26;10.90;99.90
21752;DHT22;11038;50.940;20.564;2022-09-02T03:19:00;10.90;99.90
21752;DHT22;11038;50.940;20.564;2022-09-02T03:20:33;10.90;99.90
21752;DHT22;11038;50.940;20.564;2022-09-02T03:22:05;10.90;99.90
21752;DHT22;11038;50.940;20.564;2022-09-02T03:23:38;10.90;99.90
21752;DHT22;11038;50.940;20.564;2022-09-02T03:25:11;10.90;99.90
21752;DHT22;11038;50.940;20.564;2022-09-02T03:26:45;10.90;99.90
21752;DHT22;11038;50.940;20.564;2022-09-02T03:28:18;10.90;99.90
21752;DHT22;11038;50.940;20.564;2022-09-02T03:29:50;10.90;99.90
21752;DHT22;11038;50.940;20.564;2022-09-02T03:31:24;11.00;99.90
21752;DHT22;11038;50.940;20.564;2022-09-02T03:32:59;11.00;99.90
21752;DHT22;11038;50.940;20.564;2022-09-02T03:34:44;11.00;99.90
21752;DHT22;11038;50.940;20.564;2022-09-02T03:36:29;10.90;99.90
21752;DHT22;11038;50.940;20.564;2022-09-02T03:38:04;10.90;99.90
21752;DHT22;11038;50.940;20.564;2022-09-02T03:39:37;10.90;99.90
21752;DHT22;11038;50.940;20.564;2022-09-02T03:41:11;10.90;99.90
21752;DHT22;11038;50.940;20.564;2022-09-02T03:42:44;10.90;99.90
21752;DHT22;11038;50.940;20.564;2022-09-02T03:44:18;10.90;99.90
21752;DHT22;11038;50.940;20.564;2022-09-02T03:45:50;10.90;99.90
21752;DHT22;11038;50.940;20.564;2022-09-02T03:47:22;10.90;99.90
21752;DHT22;11038;50.940;20.564;2022-09-02T03:48:55;10.90;99.90
21752;DHT22;11038;50.940;20.564;2022-09-02T03:50:34;10.90;99.90
21752;DHT22;11038;50.940;20.564;2022-09-02T03:52:10;10.90;99.90
21752;DHT22;11038;50.940;20.564;2022-09-02T03:53:42;10.90;99.90
21752;DHT22;11038;50.940;20.564;2022-09-02T03:55:15;10.90;99.90
21752;DHT22;11038;50.940;20.564;2022-09-02T03:56:48;11.00;99.90
21752;DHT22;11038;50.940;20.564;2022-09-02T03:58:21;11.00;99.90
21752;DHT22;11038;50.940;20.564;2022-09-02T03:59:56;11.00;99.90
21752;DHT22;11038;50.940;20.564;2022-09-02T04:01:29;11.00;99.90
21752;DHT22;11038;50.940;20.564;2022-09-02T04:03:06;11.00;99.90
21752;DHT22;11038;50.940;20.564;2022-09-02T04:04:38;11.00;99.90
21752;DHT22;11038;50.940;20.564;2022-09-02T04:06:12;11.00;99.90
21752;DHT22;11038;50.940;20.564;2022-09-02T04:07:46;11.30;99.90
21752;DHT22;11038;50.940;20.564;2022-09-02T04:09:18;11.50;99.90
21752;DHT22;11038;50.940;20.564;2022-09-02T04:10:51;11.90;99.90
21752;DHT22;11038;50.940;20.564;2022-09-02T04:12:23;12.20;99.90
21752;DHT22;11038;50.940;20.564;2022-09-02T04:14:03;12.50;99.90
21752;DHT22;11038;50.940;20.564;2022-09-02T04:15:39;12.90;99.90
21752;DHT22;11038;50.940;20.564;2022-09-02T04:17:15;13.20;99.90
21752;DHT22;11038;50.940;20.564;2022-09-02T04:18:47;13.60;99.90
21752;DHT22;11038;50.940;20.564;2022-09-02T04:20:20;14.00;99.90
21752;DHT22;11038;50.940;20.564;2022-09-02T04:21:52;14.30;99.90
21752;DHT22;11038;50.940;20.564;2022-09-02T04:23:25;14.60;99.90
21752;DHT22;11038;50.940;20.564;2022-09-02T04:24:57;14.90;98.00
21752;DHT22;11038;50.940;20.564;2022-09-02T04:26:30;15.20;96.30
21752;DHT22;11038;50.940;20.564;2022-09-02T04:28:02;15.50;94.80
21752;DHT22;11038;50.940;20.564;2022-09-02T04:29:35;15.80;93.60
21752;DHT22;11038;50.940;20.564;2022-09-02T04:31:11;16.10;92.30
21752;DHT22;11038;50.940;20.564;2022-09-02T04:32:45;16.30;91.10
21752;DHT22;11038;50.940;20.564;2022-09-02T04:34:17;16.70;89.60
21752;DHT22;11038;50.940;20.564;2022-09-02T04:35:50;16.90;87.80
21752;DHT22;11038;50.940;20.564;2022-09-02T04:37:23;17.10;85.80
21752;DHT22;11038;50.940;20.564;2022-09-02T04:38:57;17.40;84.30
21752;DHT22;11038;50.940;20.564;2022-09-02T04:40:30;17.60;82.70
21752;DHT22;11038;50.940;20.564;2022-09-02T04:42:02;17.90;81.00
21752;DHT22;11038;50.940;20.564;2022-09-02T04:43:35;18.10;79.60
21752;DHT22;11038;50.940;20.564;2022-09-02T04:45:08;18.20;77.90
21752;DHT22;11038;50.940;20.564;2022-09-02T04:46:41;18.40;77.20
21752;DHT22;11038;50.940;20.564;2022-09-02T04:48:13;18.50;75.80
21752;DHT22;11038;50.940;20.564;2022-09-02T04:49:45;18.80;74.60
21752;DHT22;11038;50.940;20.564;2022-09-02T04:51:20;19.00;73.90
21752;DHT22;11038;50.940;20.564;2022-09-02T04:52:54;19.10;73.00
21752;DHT22;11038;50.940;20.564;2022-09-02T04:54:27;19.40;71.50
21752;DHT22;11038;50.940;20.564;2022-09-02T04:56:01;19.60;70.50
21752;DHT22;11038;50.940;20.564;2022-09-02T04:57:35;19.70;69.80
21752;DHT22;11038;50.940;20.564;2022-09-02T04:59:08;19.70;68.80
21752;DHT22;11038;50.940;20.564;2022-09-02T05:00:41;19.80;68.80
21752;DHT22;11038;50.940;20.564;2022-09-02T05:02:13;19.60;68.30
21752;DHT22;11038;50.940;20.564;2022-09-02T05:03:47;19.70;68.30
21752;DHT22;11038;50.940;20.564;2022-09-02T05:05:20;19.80;67.80
21752;DHT22;11038;50.940;20.564;2022-09-02T05:06:53;20.00;67.60
21752;DHT22;11038;50.940;20.564;2022-09-02T05:08:26;20.00;67.20
21752;DHT22;11038;50.940;20.564;2022-09-02T05:09:59;20.20;67.10
21752;DHT22;11038;50.940;20.564;2022-09-02T05:11:31;20.30;66.70
21752;DHT22;11038;50.940;20.564;2022-09-02T05:13:04;20.30;65.80
21752;DHT22;11038;50.940;20.564;2022-09-02T05:14:37;20.50;66.00
21752;DHT22;11038;50.940;20.564;2022-09-02T05:16:14;20.70;65.30
21752;DHT22;11038;50.940;20.564;2022-09-02T05:17:47;20.60;64.70
21752;DHT22;11038;50.940;20.564;2022-09-02T05:19:22;21.00;64.20
21752;DHT22;11038;50.940;20.564;2022-09-02T05:20:55;21.10;64.20
21752;DHT22;11038;50.940;20.564;2022-09-02T05:22:27;21.10;62.90
21752;DHT22;11038;50.940;20.564;2022-09-02T05:24:00;21.30;62.90
21752;DHT22;11038;50.940;20.564;2022-09-02T05:25:32;21.30;62.40
21752;DHT22;11038;50.940;20.564;2022-09-02T05:27:05;21.40;62.90
21752;DHT22;11038;50.940;20.564;2022-09-02T05:28:39;21.50;62.10
21752;DHT22;11038;50.940;20.564;2022-09-02T05:30:13;21.60;62.30
21752;DHT22;11038;50.940;20.564;2022-09-02T05:31:46;21.60;61.90
21752;DHT22;11038;50.940;20.564;2022-09-02T05:33:19;21.60;61.70
21752;DHT22;11038;50.940;20.564;2022-09-02T05:34:54;21.70;62.20
21752;DHT22;11038;50.940;20.564;2022-09-02T05:36:27;21.80;61.90
21752;DHT22;11038;50.940;20.564;2022-09-02T05:37:59;22.00;61.60
21752;DHT22;11038;50.940;20.564;2022-09-02T05:39:32;22.10;61.50
21752;DHT22;11038;50.940;20.564;2022-09-02T05:41:06;22.00;61.00
21752;DHT22;11038;50.940;20.564;2022-09-02T05:42:39;21.90;61.30
21752;DHT22;11038;50.940;20.564;2022-09-02T05:44:12;22.10;61.80
21752;DHT22;11038;50.940;20.564;2022-09-02T05:45:44;21.90;61.80
21752;DHT22;11038;50.940;20.564;2022-09-02T05:47:18;21.90;61.80
21752;DHT22;11038;50.940;20.564;2022-09-02T05:48:51;21.70;61.90
21752;DHT22;11038;50.940;20.564;2022-09-02T05:50:38;21.50;63.30
21752;DHT22;11038;50.940;20.564;2022-09-02T05:52:12;21.50;63.70
21752;DHT22;11038;50.940;20.564;2022-09-02T05:53:44;21.60;63.80
21752;DHT22;11038;50.940;20.564;2022-09-02T05:55:17;21.40;64.00
21752;DHT22;11038;50.940;20.564;2022-09-02T05:56:52;21.30;63.70
21752;DHT22;11038;50.940;20.564;2022-09-02T05:58:26;21.40;64.40
21752;DHT22;11038;50.940;20.564;2022-09-02T05:59:58;21.30;64.30
21752;DHT22;11038;50.940;20.564;2022-09-02T06:01:30;21.50;64.90
21752;DHT22;11038;50.940;20.564;2022-09-02T06:03:03;21.20;62.70
21752;DHT22;11038;50.940;20.564;2022-09-02T06:04:37;21.30;63.60
21752;DHT22;11038;50.940;20.564;2022-09-02T06:06:11;21.10;63.90
21752;DHT22;11038;50.940;20.564;2022-09-02T06:07:44;20.90;63.10
21752;DHT22;11038;50.940;20.564;2022-09-02T06:09:19;20.80;64.80
21752;DHT22;11038;50.940;20.564;2022-09-02T06:10:54;20.90;65.20
21752;DHT22;11038;50.940;20.564;2022-09-02T06:12:26;20.60;64.80
21752;DHT22;11038;50.940;20.564;2022-09-02T06:14:02;20.20;63.90
21752;DHT22;11038;50.940;20.564;2022-09-02T06:15:40;20.30;64.50
21752;DHT22;11038;50.940;20.564;2022-09-02T06:17:17;20.20;66.50
21752;DHT22;11038;50.940;20.564;2022-09-02T06:18:50;20.20;66.30
21752;DHT22;11038;50.940;20.564;2022-09-02T06:20:23;20.10;66.00
21752;DHT22;11038;50.940;20.564;2022-09-02T06:21:55;20.60;65.70
21752;DHT22;11038;50.940;20.564;2022-09-02T06:23:28;20.40;66.50
21752;DHT22;11038;50.940;20.564;2022-09-02T06:25:00;20.60;66.70
21752;DHT22;11038;50.940;20.564;2022-09-02T06:26:34;20.50;66.80
21752;DHT22;11038;50.940;20.564;2022-09-02T06:28:32;20.60;65.90
21752;DHT22;11038;50.940;20.564;2022-09-02T06:30:06;20.50;65.80
21752;DHT22;11038;50.940;20.564;2022-09-02T06:31:43;20.70;65.80
21752;DHT22;11038;50.940;20.564;2022-09-02T06:33:17;20.20;65.90
21752;DHT22;11038;50.940;20.564;2022-09-02T06:34:49;20.10;68.00
21752;DHT22;11038;50.940;20.564;2022-09-02T06:36:23;19.90;66.50
21752;DHT22;11038;50.940;20.564;2022-09-02T06:37:59;19.70;67.70
21752;DHT22;11038;50.940;20.564;2022-09-02T06:39:31;19.70;68.00
21752;DHT22;11038;50.940;20.564;2022-09-02T06:41:04;19.50;68.00
21752;DHT22;11038;50.940;20.564;2022-09-02T06:42:37;19.10;67.60
21752;DHT22;11038;50.940;20.564;2022-09-02T06:44:11;18.80;67.80
21752;DHT22;11038;50.940;20.564;2022-09-02T06:45:46;18.70;68.80
21752;DHT22;11038;50.940;20.564;2022-09-02T06:47:18;18.90;70.10
21752;DHT22;11038;50.940;20.564;2022-09-02T06:48:51;18.70;69.90
21752;DHT22;11038;50.940;20.564;2022-09-02T06:50:23;18.60;69.10
21752;DHT22;11038;50.940;20.564;2022-09-02T06:51:57;18.60;67.40
21752;DHT22;11038;50.940;20.564;2022-09-02T06:53:31;18.60;68.50
21752;DHT22;11038;50.940;20.564;2022-09-02T06:55:03;18.70;71.20
21752;DHT22;11038;50.940;20.564;2022-09-02T06:56:37;18.50;69.00
21752;DHT22;11038;50.940;20.564;2022-09-02T06:58:10;18.70;69.20
21752;DHT22;11038;50.940;20.564;2022-09-02T06:59:43;18.90;69.40
21752;DHT22;11038;50.940;20.564;2022-09-02T07:01:25;18.40;69.40
21752;DHT22;11038;50.940;20.564;2022-09-02T07:02:59;18.60;68.20
21752;DHT22;11038;50.940;20.564;2022-09-02T07:04:50;18.80;69.00
21752;DHT22;11038;50.940;20.564;2022-09-02T07:06:47;18.90;68.90
21752;DHT22;11038;50.940;20.564;2022-09-02T07:08:24;18.90;68.60
21752;DHT22;11038;50.940;20.564;2022-09-02T07:09:56;19.00;67.80
21752;DHT22;11038;50.940;20.564;2022-09-02T07:11:28;19.20;68.60
21752;DHT22;11038;50.940;20.564;2022-09-02T07:13:00;19.00;66.30
21752;DHT22;11038;50.940;20.564;2022-09-02T07:14:42;19.00;68.10
21752;DHT22;11038;50.940;20.564;2022-09-02T07:16:16;18.90;66.80
21752;DHT22;11038;50.940;20.564;2022-09-02T07:17:58;19.00;69.60
21752;DHT22;11038;50.940;20.564;2022-09-02T07:19:30;19.30;69.10
21752;DHT22;11038;50.940;20.564;2022-09-02T07:21:03;19.20;68.30
21752;DHT22;11038;50.940;20.564;2022-09-02T07:22:37;19.10;66.90
21752;DHT22;11038;50.940;20.564;2022-09-02T07:24:12;19.10;67.20
21752;DHT22;11038;50.940;20.564;2022-09-02T07:25:45;19.00;66.80
21752;DHT22;11038;50.940;20.564;2022-09-02T07:27:17;18.90;66.60
21752;DHT22;11038;50.940;20.564;2022-09-02T07:28:51;18.90;67.80
21752;DHT22;11038;50.940;20.564;2022-09-02T07:30:24;19.30;68.10
21752;DHT22;11038;50.940;20.564;2022-09-02T07:31:57;19.20;68.50
21752;DHT22;11038;50.940;20.564;2022-09-02T07:33:29;19.20;68.10
21752;DHT22;11038;50.940;20.564;2022-09-02T07:35:03;19.30;67.50
21752;DHT22;11038;50.940;20.564;2022-09-02T07:36:37;19.20;66.40
21752;DHT22;11038;50.940;20.564;2022-09-02T07:38:10;19.20;67.30
21752;DHT22;11038;50.940;20.564;2022-09-02T07:39:42;19.20;67.20
21752;DHT22;11038;50.940;20.564;2022-09-02T07:41:16;19.40;67.40
21752;DHT22;11038;50.940;20.564;2022-09-02T07:42:48;19.40;65.80
21752;DHT22;11038;50.940;20.564;2022-09-02T07:44:21;19.40;64.70
21752;DHT22;11038;50.940;20.564;2022-09-02T07:45:54;19.50;63.70
21752;DHT22;11038;50.940;20.564;2022-09-02T07:47:28;19.80;64.00
21752;DHT22;11038;50.940;20.564;2022-09-02T07:49:01;19.70;63.60
21752;DHT22;11038;50.940;20.564;2022-09-02T07:50:40;19.40;64.50
21752;DHT22;11038;50.940;20.564;2022-09-02T07:52:12;19.40;63.60
21752;DHT22;11038;50.940;20.564;2022-09-02T07:53:45;19.70;64.10
21752;DHT22;11038;50.940;20.564;2022-09-02T07:55:17;19.50;63.70
21752;DHT22;11038;50.940;20.564;2022-09-02T07:56:50;19.30;63.40
21752;DHT22;11038;50.940;20.564;2022-09-02T07:58:23;19.40;63.80
21752;DHT22;11038;50.940;20.564;2022-09-02T07:59:56;19.20;65.10
21752;DHT22;11038;50.940;20.564;2022-09-02T08:01:29;19.30;64.50
21752;DHT22;11038;50.940;20.564;2022-09-02T08:03:04;19.40;65.30
21752;DHT22;11038;50.940;20.564;2022-09-02T08:04:40;19.40;64.40
21752;DHT22;11038;50.940;20.564;2022-09-02T08:06:12;19.40;62.70
21752;DHT22;11038;50.940;20.564;2022-09-02T08:07:45;19.40;63.20
21752;DHT22;11038;50.940;20.564;2022-09-02T08:09:18;19.60;64.10
21752;DHT22;11038;50.940;20.564;2022-09-02T08:10:52;19.60;64.70
21752;DHT22;11038;50.940;20.564;2022-09-02T08:12:26;19.30;62.40
21752;DHT22;11038;50.940;20.564;2022-09-02T08:13:59;19.30;63.80
21752;DHT22;11038;50.940;20.564;2022-09-02T08:15:33;19.10;62.30
21752;DHT22;11038;50.940;20.564;2022-09-02T08:17:06;19.30;63.10
21752;DHT22;11038;50.940;20.564;2022-09-02T08:18:39;19.30;63.00
21752;DHT22;11038;50.940;20.564;2022-09-02T08:20:12;19.40;63.10
21752;DHT22;11038;50.940;20.564;2022-09-02T08:21:46;19.40;63.00
21752;DHT22;11038;50.940;20.564;2022-09-02T08:23:19;19.70;64.80
21752;DHT22;11038;50.940;20.564;2022-09-02T08:25:08;19.60;64.60
21752;DHT22;11038;50.940;20.564;2022-09-02T08:26:43;19.90;64.60
21752;DHT22;11038;50.940;20.564;2022-09-02T08:28:15;20.00;62.60
21752;DHT22;11038;50.940;20.564;2022-09-02T08:29:48;19.90;59.60
21752;DHT22;11038;50.940;20.564;2022-09-02T08:31:21;19.80;58.30
21752;DHT22;11038;50.940;20.564;2022-09-02T08:32:53;19.70;58.90
21752;DHT22;11038;50.940;20.564;2022-09-02T08:34:26;19.90;59.00
21752;DHT22;11038;50.940;20.564;2022-09-02T08:36:07;19.70;59.50
21752;DHT22;11038;50.940;20.564;2022-09-02T08:37:42;19.70;61.90
21752;DHT22;11038;50.940;20.564;2022-09-02T08:39:14;19.90;59.30
21752;DHT22;11038;50.940;20.564;2022-09-02T08:40:48;19.90;60.80
21752;DHT22;11038;50.940;20.564;2022-09-02T08:44:04;20.60;58.20
21752;DHT22;11038;50.940;20.564;2022-09-02T08:45:39;20.60;58.30
21752;DHT22;11038;50.940;20.564;2022-09-02T08:47:24;20.40;57.70
21752;DHT22;11038;50.940;20.564;2022-09-02T08:49:12;19.90;55.60
21752;DHT22;11038;50.940;20.564;2022-09-02T08:50:57;19.90;57.10
21752;DHT22;11038;50.940;20.564;2022-09-02T08:52:47;20.00;59.10
21752;DHT22;11038;50.940;20.564;2022-09-02T08:54:45;20.10;58.60
21752;DHT22;11038;50.940;20.564;2022-09-02T08:56:22;20.00;57.60
21752;DHT22;11038;50.940;20.564;2022-09-02T08:57:55;19.90;58.70
21752;DHT22;11038;50.940;20.564;2022-09-02T08:59:29;20.00;58.70
21752;DHT22;11038;50.940;20.564;2022-09-02T09:03:27;20.00;57.00
21752;DHT22;11038;50.940;20.564;2022-09-02T09:07:26;19.70;58.90
21752;DHT22;11038;50.940;20.564;2022-09-02T09:11:09;19.80;59.40
21752;DHT22;11038;50.940;20.564;2022-09-02T09:13:29;20.20;59.20
21752;DHT22;11038;50.940;20.564;2022-09-02T09:15:17;20.40;58.60
21752;DHT22;11038;50.940;20.564;2022-09-02T09:17:27;20.80;57.20
21752;DHT22;11038;50.940;20.564;2022-09-02T09:19:20;20.10;57.00
21752;DHT22;11038;50.940;20.564;2022-09-02T09:20:59;19.90;58.60
21752;DHT22;11038;50.940;20.564;2022-09-02T09:22:37;19.60;57.30
21752;DHT22;11038;50.940;20.564;2022-09-02T09:27:37;20.10;57.10
21752;DHT22;11038;50.940;20.564;2022-09-02T09:29:10;20.20;58.50
21752;DHT22;11038;50.940;20.564;2022-09-02T09:30:42;20.30;55.00
21752;DHT22;11038;50.940;20.564;2022-09-02T09:32:36;20.50;55.70
21752;DHT22;11038;50.940;20.564;2022-09-02T09:34:12;20.80;57.00
21752;DHT22;11038;50.940;20.564;2022-09-02T09:35:50;20.20;56.50
21752;DHT22;11038;50.940;20.564;2022-09-02T09:37:34;19.70;56.80
21752;DHT22;11038;50.940;20.564;2022-09-02T09:39:29;19.50;58.20
21752;DHT22;11038;50.940;20.564;2022-09-02T09:41:13;19.50;56.60
21752;DHT22;11038;50.940;20.564;2022-09-02T09:42:55;19.60;57.40
21752;DHT22;11038;50.940;20.564;2022-09-02T09:44:40;19.60;59.00
21752;DHT22;11038;50.940;20.564;2022-09-02T09:46:30;19.50;58.60
21752;DHT22;11038;50.940;20.564;2022-09-02T09:49:52;18.90;58.50
21752;DHT22;11038;50.940;20.564;2022-09-02T09:51:54;18.90;59.30
21752;DHT22;11038;50.940;20.564;2022-09-02T09:53:32;19.10;59.10
21752;DHT22;11038;50.940;20.564;2022-09-02T09:55:17;19.20;58.40
21752;DHT22;11038;50.940;20.564;2022-09-02T09:57:13;19.30;60.50
21752;DHT22;11038;50.940;20.564;2022-09-02T09:58:52;19.20;58.60
21752;DHT22;11038;50.940;20.564;2022-09-02T10:00:30;18.90;59.80
21752;DHT22;11038;50.940;20.564;2022-09-02T10:02:04;18.90;59.10
21752;DHT22;11038;50.940;20.564;2022-09-02T10:03:40;18.60;59.20
21752;DHT22;11038;50.940;20.564;2022-09-02T10:05:31;18.60;59.20
21752;DHT22;11038;50.940;20.564;2022-09-02T10:07:10;18.90;60.10